Time;durP1;ratioP1;P1;durP2;ratioP2;P2;SDS_P1;SDS_P2;PMS_P1;PMS_P2;Temp;Humidity;BMP_temperature;BMP_pressure;BME280_temperature;BME280_humidity;BME280_pressure;Samples;Min_cycle;Max_cycle;Signal;HPM_P1;HPM_P2
2022/09/25 00:00:36;;;;;;;5.63;5.33;;;11.70;99.90;;;;;;5032627;28;20176;-88
2022/09/25 00:03:02;;;;;;;5.93;5.53;;;11.60;99.90;;;;;;5032664;28;20298;-88
2022/09/25 00:05:28;;;;;;;6.27;5.70;;;11.60;99.90;;;;;;5032641;28;20227;-87
2022/09/25 00:07:55;;;;;;;6.70;6.10;;;11.70;99.90;;;;;;5032231;28;20187;-87
2022/09/25 00:10:24;;;;;;;6.07;5.60;;;11.70;99.90;;;;;;5032131;28;20311;-87
2022/09/25 00:12:50;;;;;;;6.23;5.83;;;11.60;99.90;;;;;;5032536;28;20191;-87
2022/09/25 00:15:17;;;;;;;6.17;5.60;;;11.60;99.90;;;;;;5033600;28;20176;-88
2022/09/25 00:17:43;;;;;;;6.23;5.67;;;11.60;99.90;;;;;;5032635;28;20172;-88
2022/09/25 00:20:09;;;;;;;6.13;5.63;;;11.60;99.90;;;;;;5032600;28;20539;-88
2022/09/25 00:22:35;;;;;;;6.63;5.97;;;11.60;99.90;;;;;;5030720;28;20211;-88
2022/09/25 00:25:02;;;;;;;6.43;5.83;;;11.60;99.90;;;;;;5031904;28;20704;-88
2022/09/25 00:27:28;;;;;;;6.17;5.67;;;11.70;99.90;;;;;;5031962;28;20551;-87
2022/09/25 00:29:54;;;;;;;6.50;6.00;;;11.70;99.90;;;;;;5030413;28;20180;-87
2022/09/25 00:32:19;;;;;;;6.87;6.27;;;11.70;99.90;;;;;;5031923;28;20195;-87
2022/09/25 00:34:45;;;;;;;7.13;6.53;;;11.70;99.90;;;;;;5031651;28;20180;-87
2022/09/25 00:37:11;;;;;;;7.87;7.07;;;11.70;99.90;;;;;;5030235;28;20187;-87
2022/09/25 00:39:37;;;;;;;6.90;6.30;;;11.70;99.90;;;;;;5031571;28;20628;-86
2022/09/25 00:42:02;;;;;;;6.87;6.40;;;11.70;99.90;;;;;;5030281;28;20195;-87
2022/09/25 00:44:58;;;;;;;6.47;6.00;;;11.70;99.90;;;;;;5031915;28;20216;-89
2022/09/25 00:47:27;;;;;;;7.53;6.20;;;11.70;99.90;;;;;;5030458;28;20639;-87
2022/09/25 00:49:55;;;;;;;6.73;6.13;;;11.70;99.90;;;;;;5031576;28;20176;-88
2022/09/25 00:52:22;;;;;;;6.87;6.27;;;11.70;99.90;;;;;;5031429;28;20931;-88
2022/09/25 00:54:53;;;;;;;6.90;6.23;;;11.60;99.90;;;;;;5030833;28;20183;-87
2022/09/25 00:57:21;;;;;;;7.17;6.47;;;11.70;99.90;;;;;;5030317;28;20172;-88
2022/09/25 00:59:51;;;;;;;6.70;6.20;;;11.70;99.90;;;;;;5030084;28;20179;-85
2022/09/25 01:02:23;;;;;;;7.03;6.43;;;11.60;99.90;;;;;;5029710;28;20176;-85
2022/09/25 01:04:50;;;;;;;6.37;5.87;;;11.60;99.90;;;;;;5031510;28;20164;-85
2022/09/25 01:07:16;;;;;;;6.77;6.10;;;11.50;99.90;;;;;;5030963;28;20259;-85
2022/09/25 01:09:44;;;;;;;6.13;5.63;;;11.50;99.90;;;;;;5031203;28;20191;-85
2022/09/25 01:12:10;;;;;;;6.17;5.60;;;11.50;99.90;;;;;;5040843;28;20182;-86
2022/09/25 01:14:38;;;;;;;5.97;5.57;;;11.40;99.90;;;;;;5055544;28;20176;-86
2022/09/25 01:17:16;;;;;;;6.13;5.63;;;11.40;99.90;;;;;;5043578;28;20168;-84
2022/09/25 01:19:47;;;;;;;6.00;5.60;;;11.40;99.90;;;;;;5034611;28;20934;-85
2022/09/25 01:22:30;;;;;;;6.40;5.67;;;11.40;99.90;;;;;;5032038;28;20168;-85
2022/09/25 01:25:17;;;;;;;5.90;5.47;;;11.50;99.90;;;;;;5031255;28;20168;-85
2022/09/25 01:28:01;;;;;;;5.20;4.90;;;11.60;99.90;;;;;;5030976;28;20170;-84
2022/09/25 01:30:31;;;;;;;5.43;5.00;;;11.60;99.90;;;;;;5030998;28;20191;-85
2022/09/25 01:33:10;;;;;;;5.40;5.00;;;11.70;99.90;;;;;;5030937;28;20183;-85
2022/09/25 01:35:51;;;;;;;5.80;5.40;;;11.60;99.90;;;;;;5031101;28;20172;-84
2022/09/25 01:38:33;;;;;;;6.00;5.50;;;11.60;99.90;;;;;;5029706;28;20179;-85
2022/09/25 01:41:25;;;;;;;6.80;5.30;;;11.40;99.90;;;;;;5030795;28;20159;-86
2022/09/25 01:44:19;;;;;;;6.00;5.37;;;11.40;99.90;;;;;;5012001;28;20663;-86
2022/09/25 01:46:52;;;;;;;5.83;5.53;;;11.40;99.90;;;;;;5029403;28;20318;-86
2022/09/25 01:49:26;;;;;;;5.90;5.50;;;11.30;99.90;;;;;;5030688;28;20180;-85
2022/09/25 01:51:54;;;;;;;5.87;5.37;;;11.30;99.90;;;;;;5030864;28;20187;-85
2022/09/25 01:54:48;;;;;;;5.93;5.53;;;11.40;99.90;;;;;;5031485;28;20592;-86
2022/09/25 01:57:20;;;;;;;6.07;5.60;;;11.40;99.90;;;;;;5030795;28;20193;-85
2022/09/25 02:00:12;;;;;;;6.03;5.53;;;11.40;99.90;;;;;;5030423;28;20175;-86
2022/09/25 02:02:54;;;;;;;5.67;5.37;;;11.50;99.90;;;;;;5030712;28;20219;-86
2022/09/25 02:05:29;;;;;;;5.60;5.30;;;11.50;99.90;;;;;;5033099;28;20160;-85
2022/09/25 02:08:07;;;;;;;6.00;5.60;;;11.60;99.90;;;;;;5035757;28;20623;-86
2022/09/25 02:10:47;;;;;;;6.13;5.63;;;11.70;99.90;;;;;;5033570;28;20172;-86
2022/09/25 02:13:16;;;;;;;7.03;4.90;;;11.80;99.90;;;;;;5034379;28;20635;-86
2022/09/25 02:15:58;;;;;;;6.10;5.50;;;11.80;99.90;;;;;;5033061;28;20298;-86
2022/09/25 02:21:48;;;;;;;6.23;5.37;;;11.80;99.90;;;;;;5034590;28;20658;-86
2022/09/25 02:24:46;;;;;;;5.70;5.30;;;11.80;99.90;;;;;;5034285;28;20214;-86
2022/09/25 02:27:12;;;;;;;7.07;5.47;;;11.90;99.90;;;;;;5010480;28;20593;-86
2022/09/25 02:29:38;;;;;;;5.57;5.27;;;11.90;99.90;;;;;;5034370;28;20207;-86
2022/09/25 02:32:16;;;;;;;5.60;5.10;;;12.00;99.90;;;;;;5034069;28;20519;-86
2022/09/25 02:34:42;;;;;;;5.70;5.30;;;12.00;99.90;;;;;;5032827;28;20631;-86
2022/09/25 02:37:15;;;;;;;6.07;4.97;;;12.00;99.90;;;;;;5034266;28;20231;-85
2022/09/25 02:39:46;;;;;;;5.77;5.37;;;12.10;99.90;;;;;;5034151;28;20534;-85
2022/09/25 02:42:31;;;;;;;5.73;5.33;;;12.10;99.90;;;;;;5034216;28;20867;-85
2022/09/25 02:44:59;;;;;;;5.60;5.13;;;12.10;99.90;;;;;;5033776;28;20575;-86
2022/09/25 02:47:38;;;;;;;5.87;5.47;;;12.20;99.90;;;;;;5035272;28;20183;-86
2022/09/25 02:50:25;;;;;;;5.63;5.20;;;12.20;99.90;;;;;;5043980;28;20197;-86
2022/09/25 02:53:02;;;;;;;5.27;4.87;;;12.20;99.90;;;;;;5059838;28;20176;-86
2022/09/25 02:55:55;;;;;;;5.37;5.07;;;12.20;99.90;;;;;;5057308;28;20160;-85
2022/09/25 02:58:28;;;;;;;6.63;5.97;;;12.10;99.90;;;;;;5035868;28;20198;-85
2022/09/25 03:00:56;;;;;;;5.73;5.33;;;12.10;99.90;;;;;;5033080;28;20178;-85
2022/09/25 03:03:25;;;;;;;5.80;5.37;;;12.00;99.90;;;;;;5033938;28;20205;-85
2022/09/25 03:05:54;;;;;;;5.60;5.10;;;12.00;99.90;;;;;;5033718;28;20169;-85
2022/09/25 03:08:36;;;;;;;5.97;5.57;;;12.00;99.90;;;;;;5033688;28;20185;-85
2022/09/25 03:11:04;;;;;;;9.37;6.83;;;12.00;99.90;;;;;;5033666;28;20793;-86
2022/09/25 03:13:30;;;;;;;6.67;6.10;;;11.90;99.90;;;;;;5033506;28;20182;-86
2022/09/25 03:16:02;;;;;;;5.73;5.33;;;11.90;99.90;;;;;;5033253;28;20174;-86
2022/09/25 03:18:30;;;;;;;7.93;5.33;;;11.90;99.90;;;;;;5032503;28;20184;-85
2022/09/25 03:20:56;;;;;;;5.90;5.40;;;11.90;99.90;;;;;;5033056;28;20647;-86
2022/09/25 03:23:23;;;;;;;5.70;5.20;;;11.90;99.90;;;;;;5033264;28;20301;-86
2022/09/25 03:25:49;;;;;;;5.43;5.13;;;11.90;99.90;;;;;;5033352;28;20183;-86
2022/09/25 03:28:14;;;;;;;6.30;5.80;;;11.90;99.90;;;;;;5033127;28;20183;-85
2022/09/25 03:30:40;;;;;;;5.70;5.27;;;11.90;99.90;;;;;;5033119;28;20167;-86
2022/09/25 03:33:11;;;;;;;5.50;5.10;;;12.00;99.90;;;;;;5033205;28;20187;-86
2022/09/25 03:35:37;;;;;;;6.00;5.60;;;12.00;99.90;;;;;;5034363;28;20571;-86
2022/09/25 03:38:03;;;;;;;5.13;4.83;;;12.10;99.90;;;;;;5033127;28;20693;-86
2022/09/25 03:40:30;;;;;;;5.37;4.87;;;12.10;99.90;;;;;;5032942;28;20180;-86
2022/09/25 03:42:55;;;;;;;6.07;5.67;;;12.10;99.90;;;;;;5032595;28;20206;-86
2022/09/25 03:45:21;;;;;;;5.80;5.40;;;12.10;99.90;;;;;;5032876;28;20233;-86
2022/09/25 03:47:47;;;;;;;5.50;5.10;;;12.10;99.90;;;;;;5035319;28;20628;-86
2022/09/25 03:50:13;;;;;;;6.00;5.60;;;12.10;99.90;;;;;;5032880;28;20270;-86
2022/09/25 03:52:39;;;;;;;6.17;5.67;;;12.10;99.90;;;;;;5032893;28;20173;-86
2022/09/25 03:55:05;;;;;;;5.50;5.20;;;12.20;99.90;;;;;;5034892;28;20184;-86
2022/09/25 03:57:31;;;;;;;6.13;5.63;;;12.20;99.90;;;;;;5034051;28;20181;-85
2022/09/25 04:00:02;;;;;;;6.43;6.03;;;12.20;99.90;;;;;;5032832;28;20505;-86
2022/09/25 04:02:28;;;;;;;6.73;6.03;;;12.20;99.90;;;;;;5031119;28;20212;-86
2022/09/25 04:04:54;;;;;;;6.50;6.10;;;12.10;99.90;;;;;;5031003;28;20183;-86
2022/09/25 04:07:21;;;;;;;6.10;5.60;;;12.10;99.90;;;;;;5031282;28;20194;-86
2022/09/25 04:09:47;;;;;;;5.57;5.20;;;12.20;99.90;;;;;;5032500;28;20177;-86
2022/09/25 04:12:13;;;;;;;6.23;5.73;;;12.20;99.90;;;;;;5032447;28;20177;-86
2022/09/25 04:14:44;;;;;;;7.90;5.90;;;12.20;99.90;;;;;;5032607;28;20260;-87
2022/09/25 04:17:10;;;;;;;7.10;6.60;;;12.20;99.90;;;;;;5032445;28;20224;-86
2022/09/25 04:19:36;;;;;;;6.70;6.10;;;12.10;99.90;;;;;;5032578;28;20172;-86
2022/09/25 04:22:02;;;;;;;5.97;5.60;;;12.20;99.90;;;;;;5032392;28;20184;-85
2022/09/25 04:27:12;;;;;;;6.30;5.90;;;12.20;99.90;;;;;;5037802;28;20157;-86
2022/09/25 04:29:37;;;;;;;7.37;6.27;;;12.10;99.90;;;;;;5056423;28;20264;-86
2022/09/25 04:34:47;;;;;;;6.80;6.30;;;12.20;99.90;;;;;;5032801;28;20219;-86
2022/09/25 04:37:14;;;;;;;6.03;5.53;;;12.30;99.90;;;;;;5032309;28;20186;-86
2022/09/25 04:39:40;;;;;;;6.47;5.87;;;12.30;99.90;;;;;;5033421;28;20184;-87
2022/09/25 04:42:06;;;;;;;6.50;6.00;;;12.30;99.90;;;;;;5033366;28;20182;-86
2022/09/25 04:44:31;;;;;;;6.63;6.03;;;12.30;99.90;;;;;;5031702;28;20230;-86
2022/09/25 04:46:57;;;;;;;6.87;6.40;;;12.40;99.90;;;;;;5031526;28;20203;-86
2022/09/25 04:49:23;;;;;;;6.97;6.47;;;12.30;99.90;;;;;;5031616;28;20815;-86
2022/09/25 04:51:49;;;;;;;7.77;6.97;;;12.20;99.90;;;;;;5031824;28;20189;-86
2022/09/25 04:54:15;;;;;;;7.20;6.53;;;12.20;99.90;;;;;;5029961;28;20189;-86
2022/09/25 04:56:43;;;;;;;7.80;7.20;;;12.20;99.90;;;;;;5031687;28;20185;-85
2022/09/25 04:59:15;;;;;;;7.47;6.97;;;12.20;99.90;;;;;;5032056;28;20180;-86
2022/09/25 05:01:41;;;;;;;7.33;6.73;;;12.10;99.90;;;;;;5033087;28;20179;-85
2022/09/25 05:04:07;;;;;;;6.73;6.20;;;12.10;99.90;;;;;;5031925;28;20568;-85
2022/09/25 05:06:32;;;;;;;6.83;6.33;;;12.10;99.90;;;;;;5031483;28;20639;-86
2022/09/25 05:08:58;;;;;;;6.73;6.30;;;12.10;99.90;;;;;;5031178;28;20177;-86
2022/09/25 05:11:24;;;;;;;6.73;6.23;;;12.10;99.90;;;;;;5031119;28;20183;-85
2022/09/25 05:13:50;;;;;;;7.00;6.50;;;12.20;99.90;;;;;;5031350;28;20291;-85
2022/09/25 05:16:16;;;;;;;7.00;6.50;;;12.20;99.90;;;;;;5030105;28;20197;-85
2022/09/25 05:18:42;;;;;;;7.40;6.70;;;12.10;99.90;;;;;;5034053;28;20178;-84
2022/09/25 05:21:07;;;;;;;7.77;7.07;;;12.10;99.90;;;;;;5030923;28;20203;-85
2022/09/25 05:23:33;;;;;;;7.53;6.93;;;12.00;99.90;;;;;;5030557;28;20317;-87
2022/09/25 05:26:01;;;;;;;7.73;6.93;;;12.00;99.90;;;;;;5030710;28;20172;-86
2022/09/25 05:28:28;;;;;;;7.70;6.87;;;12.00;99.90;;;;;;5030829;28;20222;-87
2022/09/25 05:30:54;;;;;;;7.50;6.80;;;12.00;99.90;;;;;;5030588;28;20689;-86
2022/09/25 05:33:20;;;;;;;7.20;6.70;;;12.00;99.90;;;;;;5031059;28;20180;-86
2022/09/25 05:35:47;;;;;;;7.93;7.23;;;12.00;99.90;;;;;;5030831;28;20209;-86
2022/09/25 05:38:13;;;;;;;7.43;6.83;;;12.00;99.90;;;;;;5029684;28;20176;-86
2022/09/25 05:40:39;;;;;;;7.60;6.60;;;12.00;99.90;;;;;;5030848;28;20227;-86
2022/09/25 05:43:05;;;;;;;7.87;7.17;;;12.10;99.90;;;;;;5031000;28;20212;-86
2022/09/25 05:45:32;;;;;;;7.30;6.70;;;12.10;99.90;;;;;;5030727;28;20228;-86
2022/09/25 05:48:05;;;;;;;8.30;7.70;;;12.20;99.90;;;;;;5030359;28;20180;-86
2022/09/25 05:50:31;;;;;;;8.00;7.20;;;12.20;99.90;;;;;;5030986;28;20162;-85
2022/09/25 05:52:59;;;;;;;8.40;7.53;;;12.20;99.90;;;;;;5033651;28;20193;-87
2022/09/25 05:55:25;;;;;;;7.93;7.23;;;12.20;99.90;;;;;;5031398;28;20185;-86
2022/09/25 05:57:51;;;;;;;8.67;7.97;;;12.30;99.90;;;;;;5027104;28;20551;-86
2022/09/25 06:00:17;;;;;;;9.53;8.30;;;12.30;99.90;;;;;;5030862;28;20184;-85
2022/09/25 06:02:43;;;;;;;7.33;6.77;;;12.30;99.90;;;;;;5031026;28;20271;-86
2022/09/25 06:05:09;;;;;;;7.37;6.87;;;12.40;99.90;;;;;;5048938;28;20164;-85
2022/09/25 06:07:35;;;;;;;7.80;7.03;;;12.40;99.90;;;;;;5056637;28;20166;-86
2022/09/25 06:10:02;;;;;;;7.77;7.10;;;12.40;99.90;;;;;;5047160;28;20180;-85
2022/09/25 06:12:30;;;;;;;8.40;7.60;;;12.40;99.90;;;;;;5031634;28;20175;-86
2022/09/25 06:14:57;;;;;;;8.87;8.00;;;12.40;99.90;;;;;;5029547;28;20266;-86
2022/09/25 06:17:22;;;;;;;10.93;9.77;;;12.50;99.90;;;;;;5028975;28;20660;-85
2022/09/25 06:19:48;;;;;;;9.37;8.43;;;12.50;99.90;;;;;;5030702;28;20184;-86
2022/09/25 06:22:14;;;;;;;9.23;7.63;;;12.40;99.90;;;;;;5030688;28;20178;-85
2022/09/25 06:24:40;;;;;;;8.10;7.50;;;12.50;99.90;;;;;;5030818;28;20184;-86
2022/09/25 06:27:06;;;;;;;8.27;7.47;;;12.40;99.90;;;;;;5040827;28;20181;-85
2022/09/25 06:29:32;;;;;;;8.50;7.70;;;12.40;99.90;;;;;;5033260;28;20191;-86
2022/09/25 06:31:58;;;;;;;8.07;7.23;;;12.40;99.90;;;;;;5031520;28;20185;-86
2022/09/25 06:34:24;;;;;;;8.60;7.90;;;12.50;99.90;;;;;;5030691;28;20263;-85
2022/09/25 06:36:50;;;;;;;7.40;6.80;;;12.50;99.90;;;;;;5029100;28;20659;-85
2022/09/25 06:39:15;;;;;;;7.30;6.70;;;12.50;99.90;;;;;;5029012;28;20181;-85
2022/09/25 06:41:41;;;;;;;8.13;7.33;;;12.40;99.90;;;;;;5030411;28;20184;-85
2022/09/25 06:44:08;;;;;;;8.83;8.13;;;12.40;99.90;;;;;;5028433;28;20624;-85
2022/09/25 06:46:34;;;;;;;8.13;7.40;;;12.40;99.90;;;;;;5029681;28;20174;-85
2022/09/25 06:49:00;;;;;;;7.23;6.73;;;12.40;99.90;;;;;;5030199;28;20176;-85
2022/09/25 06:51:32;;;;;;;7.87;7.23;;;12.40;99.90;;;;;;5028760;28;20192;-85
2022/09/25 06:53:58;;;;;;;7.97;7.27;;;12.40;99.90;;;;;;5033500;28;20206;-85
2022/09/25 06:56:23;;;;;;;8.23;7.50;;;12.40;99.90;;;;;;5033776;28;20202;-85
2022/09/25 06:58:52;;;;;;;7.60;7.00;;;12.40;99.90;;;;;;5033612;28;20242;-86
2022/09/25 07:01:17;;;;;;;6.77;6.37;;;12.40;99.90;;;;;;5033942;28;20266;-86
2022/09/25 07:03:43;;;;;;;7.30;6.67;;;12.40;99.90;;;;;;5032592;28;20616;-85
2022/09/25 07:06:18;;;;;;;8.17;7.47;;;12.40;99.90;;;;;;5033652;28;20168;-85
2022/09/25 07:08:45;;;;;;;7.97;7.37;;;12.40;99.90;;;;;;5031972;28;20172;-86
2022/09/25 07:11:20;;;;;;;8.30;7.53;;;12.30;99.90;;;;;;5033257;28;20172;-85
2022/09/25 07:13:46;;;;;;;7.93;7.33;;;12.30;99.90;;;;;;5033524;28;20172;-86
2022/09/25 07:16:15;;;;;;;7.53;6.93;;;12.30;99.90;;;;;;5033300;28;20176;-85
2022/09/25 07:18:42;;;;;;;8.43;7.70;;;12.30;99.90;;;;;;5033425;28;20235;-86
2022/09/25 07:21:12;;;;;;;8.37;7.63;;;12.30;99.90;;;;;;5033378;28;20969;-86
2022/09/25 07:23:39;;;;;;;7.93;7.33;;;12.40;99.90;;;;;;5033254;28;20215;-85
2022/09/25 07:26:25;;;;;;;8.20;7.50;;;12.40;99.90;;;;;;5048404;28;20273;-85
2022/09/25 07:29:00;;;;;;;8.23;7.63;;;12.40;99.90;;;;;;5031379;28;20252;-86
2022/09/25 07:31:28;;;;;;;7.47;6.83;;;12.50;99.90;;;;;;5033035;28;20223;-85
2022/09/25 07:33:56;;;;;;;8.07;7.47;;;12.40;99.90;;;;;;5033149;28;20250;-86
2022/09/25 07:36:22;;;;;;;8.20;7.40;;;12.40;99.90;;;;;;5032989;28;20681;-85
2022/09/25 07:38:51;;;;;;;7.77;6.77;;;12.50;99.90;;;;;;5033180;28;20171;-86
2022/09/25 07:41:18;;;;;;;7.80;7.10;;;12.50;99.90;;;;;;5033461;28;20265;-85
2022/09/25 07:43:44;;;;;;;7.60;7.00;;;12.60;99.90;;;;;;5037490;28;20291;-85
2022/09/25 07:46:10;;;;;;;6.47;6.07;;;12.70;99.90;;;;;;5051862;28;20231;-86
2022/09/25 07:48:36;;;;;;;7.40;6.37;;;12.80;99.90;;;;;;5048785;28;20294;-86
2022/09/25 07:51:04;;;;;;;7.20;6.60;;;12.70;99.90;;;;;;5034565;28;20227;-87
2022/09/25 07:53:30;;;;;;;8.07;7.37;;;12.70;99.90;;;;;;5033244;28;20176;-86
2022/09/25 07:56:00;;;;;;;7.47;6.70;;;12.80;99.90;;;;;;5032741;28;20183;-86
2022/09/25 07:58:26;;;;;;;7.63;7.07;;;12.80;99.90;;;;;;5032772;28;20192;-86
2022/09/25 08:00:57;;;;;;;6.60;6.10;;;12.80;99.90;;;;;;5032788;28;20538;-86
2022/09/25 08:03:23;;;;;;;7.30;6.53;;;12.90;99.90;;;;;;5031180;28;20253;-86
2022/09/25 08:06:05;;;;;;;7.40;6.70;;;12.90;99.90;;;;;;5032241;28;20200;-86
2022/09/25 08:08:33;;;;;;;7.57;6.97;;;12.90;99.90;;;;;;5032372;28;20192;-86
2022/09/25 08:11:08;;;;;;;7.00;6.40;;;12.90;99.90;;;;;;5031546;28;20710;-86
2022/09/25 08:13:36;;;;;;;7.57;6.80;;;13.00;99.90;;;;;;5031183;28;20176;-86
2022/09/25 08:16:05;;;;;;;7.70;7.10;;;13.00;99.90;;;;;;5032988;28;20169;-86
2022/09/25 08:18:31;;;;;;;7.90;7.37;;;13.10;99.90;;;;;;5032102;28;20514;-86
2022/09/25 08:21:04;;;;;;;7.97;7.37;;;13.00;99.90;;;;;;5032734;28;20647;-86
2022/09/25 08:23:30;;;;;;;8.07;7.47;;;13.10;99.90;;;;;;5033740;28;20211;-84
2022/09/25 08:25:56;;;;;;;8.50;7.70;;;13.10;99.90;;;;;;5034719;28;20707;-85
2022/09/25 08:28:22;;;;;;;8.97;8.17;;;13.10;99.90;;;;;;5035018;28;20183;-86
2022/09/25 08:30:48;;;;;;;8.40;7.60;;;13.10;99.90;;;;;;5033043;28;20180;-85
2022/09/25 08:33:14;;;;;;;7.97;7.33;;;13.00;99.90;;;;;;5034072;28;20259;-86
2022/09/25 08:35:40;;;;;;;8.30;7.50;;;13.00;99.90;;;;;;5033027;28;20203;-86
2022/09/25 08:38:07;;;;;;;7.97;7.33;;;13.00;99.90;;;;;;5034830;28;20169;-86
2022/09/25 08:40:41;;;;;;;8.40;7.70;;;12.90;99.90;;;;;;5034298;28;20191;-86
2022/09/25 08:43:14;;;;;;;8.37;7.67;;;13.00;99.90;;;;;;5033649;28;20737;-85
2022/09/25 08:51:21;;;;;;;10.27;9.20;;;13.10;99.90;;;;;;5034801;28;20176;-85
2022/09/25 08:53:48;;;;;;;7.97;7.37;;;13.10;99.90;;;;;;5033248;28;20183;-85
2022/09/25 08:56:16;;;;;;;7.77;7.17;;;13.10;99.90;;;;;;5032336;28;20551;-85
2022/09/25 08:58:50;;;;;;;9.23;8.37;;;13.00;99.90;;;;;;5034160;28;20230;-86
2022/09/25 09:01:24;;;;;;;9.60;8.77;;;13.00;99.90;;;;;;5034814;28;20177;-84
2022/09/25 09:04:35;;;;;;;8.83;8.07;;;12.90;99.90;;;;;;5049605;28;20678;-84
2022/09/25 09:07:12;;;;;;;8.60;7.90;;;12.90;99.90;;;;;;4989549;28;20178;-85
2022/09/25 09:09:46;;;;;;;9.20;8.40;;;12.90;99.90;;;;;;5029244;28;20799;-85
2022/09/25 09:12:20;;;;;;;8.23;7.63;;;13.00;99.90;;;;;;5031358;28;20191;-85
2022/09/25 09:14:51;;;;;;;9.40;8.60;;;13.00;99.90;;;;;;5030811;28;20168;-85
2022/09/25 09:17:23;;;;;;;8.23;7.50;;;13.10;99.90;;;;;;5031668;28;20172;-85
2022/09/25 09:19:53;;;;;;;8.40;7.67;;;13.20;99.90;;;;;;5032941;28;20168;-85
2022/09/25 09:22:27;;;;;;;8.03;7.43;;;13.20;99.90;;;;;;5035511;28;20168;-85
2022/09/25 09:25:06;;;;;;;9.03;8.27;;;13.20;99.90;;;;;;5055171;28;20169;-85
2022/09/25 09:27:57;;;;;;;8.87;8.17;;;13.30;99.90;;;;;;5048899;28;20179;-85
2022/09/25 09:30:41;;;;;;;8.23;7.50;;;13.30;99.90;;;;;;5032160;28;20230;-85
2022/09/25 09:33:10;;;;;;;7.97;7.30;;;13.30;99.90;;;;;;5031224;28;20168;-85
2022/09/25 09:35:49;;;;;;;8.13;7.13;;;13.30;99.90;;;;;;5029722;28;20183;-85
2022/09/25 09:38:32;;;;;;;8.33;7.57;;;13.40;99.90;;;;;;5030248;28;20227;-85
2022/09/25 09:41:15;;;;;;;7.23;6.67;;;13.40;99.90;;;;;;5030539;28;20506;-86
2022/09/25 09:43:52;;;;;;;7.97;7.37;;;13.50;99.90;;;;;;5030888;28;20287;-85
2022/09/25 09:46:42;;;;;;;8.00;7.40;;;13.60;99.90;;;;;;5030231;28;20326;-85
2022/09/25 09:49:36;;;;;;;8.13;7.33;;;13.70;99.90;;;;;;5011237;28;20279;-85
2022/09/25 09:52:10;;;;;;;8.00;7.23;;;13.90;99.90;;;;;;5030779;28;20169;-85
2022/09/25 09:54:59;;;;;;;7.00;6.47;;;14.10;99.90;;;;;;5030946;28;20912;-85
2022/09/25 09:57:46;;;;;;;8.83;8.03;;;14.20;99.90;;;;;;5030565;28;20168;-85
2022/09/25 10:00:18;;;;;;;6.53;6.03;;;14.40;99.90;;;;;;5029679;28;20168;-85
2022/09/25 10:02:53;;;;;;;7.03;6.47;;;14.50;99.90;;;;;;5030763;28;20193;-85
2022/09/25 10:05:57;;;;;;;7.70;7.10;;;14.50;99.90;;;;;;5030080;28;20589;-85
2022/09/25 10:08:23;;;;;;;6.87;6.27;;;14.60;99.90;;;;;;5030078;28;20234;-85
2022/09/25 10:10:54;;;;;;;6.97;6.50;;;14.70;99.90;;;;;;5030479;28;20183;-84
2022/09/25 10:13:33;;;;;;;6.57;6.17;;;14.80;99.90;;;;;;5030303;28;20164;-86
2022/09/25 10:16:11;;;;;;;6.87;6.37;;;14.90;99.90;;;;;;5030833;28;20584;-84
2022/09/25 10:19:12;;;;;;;6.60;6.20;;;14.90;99.90;;;;;;5030956;28;20251;-87
2022/09/25 10:21:45;;;;;;;6.70;6.10;;;14.90;99.90;;;;;;5030214;28;20646;-84
2022/09/25 10:24:53;;;;;;;6.57;6.07;;;14.80;99.90;;;;;;5029065;28;20231;-87
2022/09/25 10:27:35;;;;;;;8.07;7.47;;;14.80;99.90;;;;;;5030982;28;20169;-85
2022/09/25 10:30:21;;;;;;;8.27;7.67;;;14.70;99.90;;;;;;5034416;28;20671;-85
2022/09/25 10:33:00;;;;;;;9.33;8.53;;;14.60;99.90;;;;;;5034390;28;20159;-85
2022/09/25 10:35:49;;;;;;;9.30;8.47;;;14.60;99.90;;;;;;5034352;28;20153;-85
2022/09/25 10:38:33;;;;;;;8.90;8.30;;;14.60;99.90;;;;;;5033077;28;20648;-86
2022/09/25 11:08:54;;;;;;;8.43;7.73;;;14.70;99.90;;;;;;5091871;27;20530;-84
2022/09/25 11:11:25;;;;;;;8.30;7.70;;;14.70;99.90;;;;;;5089739;28;20639;-86
2022/09/25 11:13:57;;;;;;;8.20;7.50;;;15.00;99.90;;;;;;5088010;28;20198;-85
2022/09/25 11:16:46;;;;;;;8.63;7.97;;;15.10;99.90;;;;;;5088516;28;20182;-85
2022/09/25 11:19:34;;;;;;;8.47;7.67;;;15.40;99.90;;;;;;5089910;28;20189;-84
2022/09/25 11:22:10;;;;;;;8.23;7.53;;;15.70;99.90;;;;;;5087904;28;20535;-84
2022/09/25 11:24:53;;;;;;;7.37;6.87;;;15.90;99.90;;;;;;5089249;28;20508;-84
2022/09/25 11:27:42;;;;;;;7.57;7.07;;;16.10;99.90;;;;;;5088787;28;20215;-84
2022/09/25 11:30:17;;;;;;;6.90;6.40;;;16.40;99.90;;;;;;5089295;28;20566;-84
2022/09/25 11:32:58;;;;;;;7.53;6.97;;;16.70;99.90;;;;;;5087553;28;20176;-84
2022/09/25 11:35:47;;;;;;;6.93;6.43;;;16.80;99.90;;;;;;5089221;28;20176;-84
2022/09/25 11:41:51;;;;;;;7.50;6.90;;;16.90;99.90;;;;;;5087863;28;20195;-85
2022/09/25 11:44:35;;;;;;;8.00;7.30;;;16.70;99.90;;;;;;5076515;28;20206;-84
2022/09/25 11:47:19;;;;;;;7.43;6.70;;;16.40;99.90;;;;;;5085481;28;20205;-85
2022/09/25 11:49:52;;;;;;;8.10;7.30;;;16.30;99.90;;;;;;5087302;28;20182;-85
2022/09/25 11:52:41;;;;;;;8.20;7.60;;;16.20;99.90;;;;;;5087661;28;20168;-85
2022/09/25 11:55:17;;;;;;;7.83;7.20;;;16.10;99.90;;;;;;5087309;28;20163;-84
2022/09/25 11:58:15;;;;;;;7.90;7.13;;;16.00;99.90;;;;;;5087243;28;20621;-84
2022/09/25 12:01:17;;;;;;;7.40;6.80;;;15.90;99.90;;;;;;5085941;28;20280;-84
2022/09/25 12:04:29;;;;;;;7.90;7.30;;;15.80;99.90;;;;;;5087289;28;20175;-85
2022/09/25 12:07:04;;;;;;;7.60;7.10;;;15.80;99.90;;;;;;5083534;28;20226;-85
2022/09/25 12:09:41;;;;;;;7.97;7.27;;;15.70;99.90;;;;;;5087299;28;20673;-85
2022/09/25 12:12:59;;;;;;;6.83;6.30;;;15.70;99.90;;;;;;5087499;28;20616;-85
2022/09/25 12:15:46;;;;;;;7.03;6.53;;;15.70;99.90;;;;;;5085462;28;20608;-85
2022/09/25 12:18:23;;;;;;;6.57;6.10;;;15.90;99.90;;;;;;5084104;28;20165;-84
2022/09/25 12:21:06;;;;;;;6.50;6.10;;;16.00;99.90;;;;;;5073465;28;20166;-85
2022/09/25 12:23:54;;;;;;;7.13;6.43;;;16.20;99.90;;;;;;5073081;28;20159;-84
2022/09/25 12:26:51;;;;;;;7.30;6.80;;;16.50;99.90;;;;;;5072921;28;20553;-84
2022/09/25 12:29:28;;;;;;;6.90;6.40;;;16.80;99.90;;;;;;5073869;28;20255;-84
2022/09/25 12:32:11;;;;;;;7.13;6.67;;;17.00;99.90;;;;;;5072861;28;20593;-84
2022/09/25 12:35:13;;;;;;;7.13;6.63;;;17.10;99.90;;;;;;5072575;28;20164;-84
2022/09/25 12:37:52;;;;;;;7.53;7.00;;;17.20;99.90;;;;;;5072965;28;20527;-83
2022/09/25 12:41:05;;;;;;;6.53;6.13;;;17.20;99.90;;;;;;5081127;28;20167;-83
2022/09/25 12:44:11;;;;;;;7.67;7.17;;;17.20;99.90;;;;;;5085348;28;20511;-84
2022/09/25 12:46:49;;;;;;;7.17;6.57;;;17.30;99.90;;;;;;5070591;28;20237;-83
2022/09/25 12:49:37;;;;;;;8.83;6.30;;;17.40;99.90;;;;;;5072915;28;20171;-83
2022/09/25 12:52:13;;;;;;;7.53;6.83;;;17.50;99.90;;;;;;5071966;28;20182;-83
2022/09/25 12:55:13;;;;;;;7.17;6.60;;;17.50;99.90;;;;;;5072834;28;20633;-83
2022/09/25 12:57:47;;;;;;;6.93;6.43;;;17.60;99.90;;;;;;5069358;28;20210;-84
2022/09/25 13:00:22;;;;;;;6.60;6.20;;;17.70;99.90;;;;;;5072300;28;20728;-83
2022/09/25 13:03:13;;;;;;;6.20;5.80;;;17.60;99.90;;;;;;5072275;28;20191;-84
2022/09/25 13:06:13;;;;;;;6.23;5.73;;;17.50;99.90;;;;;;5072045;28;20163;-83
2022/09/25 13:08:43;;;;;;;6.10;5.70;;;17.50;99.90;;;;;;5068020;28;20246;-83
2022/09/25 13:11:15;;;;;;;6.40;6.00;;;17.50;99.90;;;;;;5072235;28;20194;-83
2022/09/25 13:13:45;;;;;;;6.10;5.70;;;17.50;99.90;;;;;;5071887;28;20185;-84
2022/09/25 13:16:14;;;;;;;6.30;5.90;;;17.60;99.90;;;;;;5071861;28;20156;-83
2022/09/25 13:18:47;;;;;;;6.10;5.60;;;17.70;99.90;;;;;;5071883;28;20179;-83
2022/09/25 13:21:28;;;;;;;5.37;5.10;;;17.80;99.90;;;;;;5071383;28;20557;-82
2022/09/25 13:23:55;;;;;;;6.03;5.50;;;17.90;99.90;;;;;;5071927;28;20165;-84
2022/09/25 13:26:25;;;;;;;6.00;5.60;;;17.90;99.90;;;;;;5071532;28;20254;-84
2022/09/25 13:29:03;;;;;;;5.40;5.10;;;18.00;99.90;;;;;;5072095;28;20178;-85
2022/09/25 13:31:31;;;;;;;5.47;5.13;;;18.10;99.90;;;;;;5069457;28;20263;-84
2022/09/25 13:34:00;;;;;;;5.43;5.03;;;18.20;99.90;;;;;;5069988;28;20179;-83
2022/09/25 13:36:40;;;;;;;5.23;4.93;;;18.20;99.90;;;;;;5072784;28;20174;-83
2022/09/25 13:42:25;;;;;;;4.90;4.60;;;18.30;99.90;;;;;;5072002;28;20255;-83
2022/09/25 13:45:06;;;;;;;5.20;4.80;;;18.30;99.90;;;;;;5071115;28;20236;-83
2022/09/25 13:47:41;;;;;;;4.80;4.60;;;18.10;99.90;;;;;;5071430;28;20191;-86
2022/09/25 13:50:09;;;;;;;4.90;4.60;;;18.00;99.90;;;;;;5071595;28;20166;-85
2022/09/25 13:52:35;;;;;;;4.93;4.60;;;17.90;99.90;;;;;;5069821;28;20183;-83
2022/09/25 13:55:13;;;;;;;5.27;4.97;;;17.90;99.90;;;;;;5070787;28;20175;-83
